Time;durP1;ratioP1;P1;durP2;ratioP2;P2;SDS_P1;SDS_P2;PMS_P1;PMS_P2;Temp;Humidity;BMP_temperature;BMP_pressure;BME280_temperature;BME280_humidity;BME280_pressure;Samples;Min_cycle;Max_cycle;Signal;HPM_P1;HPM_P2
2023/12/03 00:01:44;;;;;;;;;;;;;;;3.57;91.65;101136.88;7326692;19;19942;-68
2023/12/03 00:04:11;;;;;;;;;;;;;;;3.60;90.61;101123.69;7310051;19;19930;-66
2023/12/03 00:06:38;;;;;;;;;;;;;;;3.59;90.36;101124.63;7316750;19;20333;-67
2023/12/03 00:09:10;;;;;;;;;;;;;;;3.64;90.67;101119.94;7314630;19;20389;-67
2023/12/03 00:11:37;;;;;;;;;;;;;;;3.62;90.51;101114.00;7323759;19;19946;-68
2023/12/03 00:14:04;;;;;;;;;;;;;;;3.67;90.43;101110.16;7327575;19;19947;-66
2023/12/03 00:16:31;;;;;;;;;;;;;;;3.73;90.23;101116.72;7335184;19;20248;-67
2023/12/03 00:18:58;;;;;;;;;;;;;;;3.73;90.48;101108.94;7324950;19;19919;-65
2023/12/03 00:21:25;;;;;;;;;;;;;;;3.75;90.64;101114.88;7315281;19;21446;-68
2023/12/03 00:23:52;;;;;;;;;;;;;;;3.76;90.53;101106.94;7310560;19;19955;-66
2023/12/03 00:26:19;;;;;;;;;;;;;;;3.84;90.27;101101.25;7318995;19;20231;-66
2023/12/03 00:28:46;;;;;;;;;;;;;;;3.86;90.19;101096.75;7316818;19;20960;-68
2023/12/03 00:31:13;;;;;;;;;;;;;;;3.88;90.25;101098.34;7323230;19;19937;-67
2023/12/03 00:33:39;;;;;;;;;;;;;;;3.89;90.31;101093.97;7324172;19;19911;-67
2023/12/03 00:36:07;;;;;;;;;;;;;;;3.92;89.98;101095.50;7323298;19;19915;-66
2023/12/03 00:38:33;;;;;;;;;;;;;;;3.94;90.13;101093.66;7322474;19;19927;-67
2023/12/03 00:41:01;;;;;;;;;;;;;;;3.99;89.87;101083.75;7324069;19;19915;-67
2023/12/03 00:43:27;;;;;;;;;;;;;;;4.02;89.52;101084.38;7321962;19;20443;-66
2023/12/03 00:45:54;;;;;;;;;;;;;;;4.03;89.92;101085.22;7322783;19;19962;-67
2023/12/03 00:48:21;;;;;;;;;;;;;;;4.13;91.39;101081.03;7324933;19;19911;-66
2023/12/03 00:50:49;;;;;;;;;;;;;;;4.21;93.32;101073.56;7329620;19;19918;-67
2023/12/03 00:53:15;;;;;;;;;;;;;;;4.26;93.77;101072.31;7336593;19;19998;-66
2023/12/03 00:55:42;;;;;;;;;;;;;;;4.34;96.24;101076.97;7328202;19;19914;-67
2023/12/03 00:58:09;;;;;;;;;;;;;;;4.32;94.79;101064.03;7325555;19;20302;-67
2023/12/03 01:00:36;;;;;;;;;;;;;;;4.33;94.34;101064.88;7316781;19;20297;-66
2023/12/03 01:03:03;;;;;;;;;;;;;;;4.35;92.66;101062.16;7321847;19;19914;-66
2023/12/03 01:05:30;;;;;;;;;;;;;;;4.28;92.09;101062.59;7322093;19;19925;-67
2023/12/03 01:07:56;;;;;;;;;;;;;;;4.29;91.72;101066.88;7319541;19;19928;-69
2023/12/03 01:10:23;;;;;;;;;;;;;;;4.28;91.93;101059.97;7322425;19;19926;-67
2023/12/03 01:12:50;;;;;;;;;;;;;;;4.28;90.32;101049.56;7316626;19;19982;-66
2023/12/03 01:15:17;;;;;;;;;;;;;;;4.27;90.91;101053.09;7328502;19;19919;-66
2023/12/03 01:17:44;;;;;;;;;;;;;;;4.30;91.15;101049.47;7319425;19;20498;-68
2023/12/03 01:20:11;;;;;;;;;;;;;;;4.34;90.79;101045.72;7314399;19;19942;-67
2023/12/03 01:22:38;;;;;;;;;;;;;;;4.36;90.82;101043.00;7318505;19;19930;-66
2023/12/03 01:25:05;;;;;;;;;;;;;;;4.32;90.31;101040.59;7320015;19;19926;-67
2023/12/03 01:27:32;;;;;;;;;;;;;;;4.36;90.31;101041.22;7318441;19;20422;-67
2023/12/03 01:29:59;;;;;;;;;;;;;;;4.37;90.96;101040.28;7308811;19;19925;-66
2023/12/03 01:32:26;;;;;;;;;;;;;;;4.40;91.05;101034.03;7326666;19;20761;-67
2023/12/03 01:34:53;;;;;;;;;;;;;;;4.37;90.72;101034.25;7327553;19;19919;-69
2023/12/03 01:37:20;;;;;;;;;;;;;;;4.40;90.83;101028.81;7326384;19;19930;-67
2023/12/03 01:39:46;;;;;;;;;;;;;;;4.38;89.44;101028.09;7321225;19;20412;-67
2023/12/03 01:42:14;;;;;;;;;;;;;;;4.38;89.97;101028.91;7322400;19;20388;-67
2023/12/03 01:44:40;;;;;;;;;;;;;;;4.39;89.73;101024.53;7321462;19;19970;-66
2023/12/03 01:47:08;;;;;;;;;;;;;;;4.40;89.69;101023.59;7320926;19;20369;-69
2023/12/03 01:49:35;;;;;;;;;;;;;;;4.42;89.02;101030.34;7318400;19;20209;-66
2023/12/03 01:52:02;;;;;;;;;;;;;;;4.46;89.80;101024.03;7326271;19;19914;-67
2023/12/03 01:54:33;;;;;;;;;;;;;;;4.45;90.04;101019.75;7308110;19;20514;-67
2023/12/03 01:57:00;;;;;;;;;;;;;;;4.48;90.17;101019.50;7318876;19;19919;-68
2023/12/03 01:59:27;;;;;;;;;;;;;;;4.48;89.90;101019.50;7318494;19;19941;-67
2023/12/03 02:01:56;;;;;;;;;;;;;;;4.45;90.08;101008.50;7326483;19;21056;-67
2023/12/03 02:04:22;;;;;;;;;;;;;;;4.47;89.17;101010.03;7318175;19;19921;-67
2023/12/03 02:06:49;;;;;;;;;;;;;;;4.50;89.39;101007.22;7314187;19;19941;-67
2023/12/03 02:09:16;;;;;;;;;;;;;;;4.54;89.58;101013.88;7315287;19;20174;-66
2023/12/03 02:11:43;;;;;;;;;;;;;;;4.51;89.89;101010.66;7318257;19;19911;-67
2023/12/03 02:14:10;;;;;;;;;;;;;;;4.56;90.08;101005.97;7318459;19;19930;-69
2023/12/03 02:16:37;;;;;;;;;;;;;;;4.57;90.22;101007.63;7323829;19;20429;-67
2023/12/03 02:19:05;;;;;;;;;;;;;;;4.59;89.65;101003.13;7327507;19;20902;-67
2023/12/03 02:21:32;;;;;;;;;;;;;;;4.60;89.77;101005.63;7317195;19;19907;-67
2023/12/03 02:23:59;;;;;;;;;;;;;;;4.64;90.16;101001.84;7323886;19;19952;-69
2023/12/03 02:26:26;;;;;;;;;;;;;;;4.64;89.66;100999.25;7330892;19;20367;-67
2023/12/03 02:28:53;;;;;;;;;;;;;;;4.66;89.96;100992.16;7327018;19;19922;-68
2023/12/03 02:31:20;;;;;;;;;;;;;;;4.73;90.35;100988.16;7296020;19;20035;-68
2023/12/03 02:33:53;;;;;;;;;;;;;;;4.72;90.32;100988.28;7323134;19;19975;-68
2023/12/03 02:36:20;;;;;;;;;;;;;;;4.75;90.04;100995.88;7321323;19;19926;-67
2023/12/03 02:38:46;;;;;;;;;;;;;;;4.77;90.30;100990.53;7320675;19;20018;-67
2023/12/03 02:41:13;;;;;;;;;;;;;;;4.79;90.21;100988.66;7313212;19;19926;-68
2023/12/03 02:43:40;;;;;;;;;;;;;;;4.79;89.01;100986.88;7319183;19;20376;-67
2023/12/03 02:46:07;;;;;;;;;;;;;;;4.80;88.62;100985.94;7323529;19;19919;-66
2023/12/03 02:48:34;;;;;;;;;;;;;;;4.83;89.00;100990.06;7305267;19;20133;-67
2023/12/03 02:51:01;;;;;;;;;;;;;;;4.84;88.84;100983.94;7318315;19;20444;-67
2023/12/03 02:53:28;;;;;;;;;;;;;;;4.84;87.81;100989.97;7316025;19;19926;-66
2023/12/03 02:55:54;;;;;;;;;;;;;;;4.86;86.89;100979.44;7318383;19;20005;-67
2023/12/03 02:58:21;;;;;;;;;;;;;;;4.88;86.70;100977.53;7317563;19;19926;-68
2023/12/03 03:00:48;;;;;;;;;;;;;;;4.89;87.09;100979.22;7320762;19;19922;-66
2023/12/03 03:03:15;;;;;;;;;;;;;;;4.90;86.62;100979.09;7319212;19;20364;-68
2023/12/03 03:05:42;;;;;;;;;;;;;;;4.92;86.92;100974.63;7314619;19;19922;-68
2023/12/03 03:08:09;;;;;;;;;;;;;;;4.94;87.21;100967.50;7316956;19;19919;-68
2023/12/03 03:10:36;;;;;;;;;;;;;;;4.96;86.75;100973.44;7316439;19;19986;-67
2023/12/03 03:13:02;;;;;;;;;;;;;;;4.95;86.49;100971.78;7322529;19;19927;-68
2023/12/03 03:15:29;;;;;;;;;;;;;;;4.98;87.17;100970.69;7317693;19;19923;-67
2023/12/03 03:17:56;;;;;;;;;;;;;;;4.98;86.44;100968.94;7311220;19;20350;-68
2023/12/03 03:20:23;;;;;;;;;;;;;;;4.97;86.87;100967.28;7324108;19;19922;-66
2023/12/03 03:22:50;;;;;;;;;;;;;;;5.00;87.15;100958.41;7311582;19;19918;-67
2023/12/03 03:25:17;;;;;;;;;;;;;;;4.95;86.78;100970.94;7330864;19;22476;-66
2023/12/03 03:27:44;;;;;;;;;;;;;;;4.95;86.03;100970.94;7333429;19;19983;-67
2023/12/03 03:30:11;;;;;;;;;;;;;;;4.99;86.30;100968.00;7328261;19;19927;-66
2023/12/03 03:32:38;;;;;;;;;;;;;;;5.00;86.23;100964.44;7304837;19;19930;-66
2023/12/03 03:35:05;;;;;;;;;;;;;;;5.02;86.39;100965.19;7315885;19;19926;-66
2023/12/03 03:37:32;;;;;;;;;;;;;;;5.05;86.59;100956.28;7319138;19;19926;-68
2023/12/03 03:39:58;;;;;;;;;;;;;;;5.06;86.41;100957.94;7313996;19;19938;-68
2023/12/03 03:42:25;;;;;;;;;;;;;;;5.08;86.53;100956.03;7307769;19;19943;-66
2023/12/03 03:44:52;;;;;;;;;;;;;;;5.11;86.51;100942.78;7307124;19;19946;-67
2023/12/03 03:47:19;;;;;;;;;;;;;;;5.13;86.99;100926.06;7311775;19;20129;-67
2023/12/03 03:49:45;;;;;;;;;;;;;;;5.12;86.83;100934.88;7326790;19;19928;-68
2023/12/03 03:52:12;;;;;;;;;;;;;;;5.14;85.84;100930.34;7320719;19;20390;-66
2023/12/03 03:54:42;;;;;;;;;;;;;;;5.13;85.45;100926.06;7321152;19;20434;-70
2023/12/03 03:57:09;;;;;;;;;;;;;;;5.14;84.82;100913.88;7319610;19;20799;-68
2023/12/03 03:59:36;;;;;;;;;;;;;;;5.18;84.64;100903.09;7309403;19;19929;-68
2023/12/03 04:02:03;;;;;;;;;;;;;;;5.25;85.00;100903.47;7316822;19;19922;-67
2023/12/03 04:04:30;;;;;;;;;;;;;;;5.26;85.28;100897.31;7307741;19;19927;-67
2023/12/03 04:06:57;;;;;;;;;;;;;;;5.27;84.36;100891.16;7314795;19;19926;-67
2023/12/03 04:09:24;;;;;;;;;;;;;;;5.33;83.92;100898.50;7311862;19;20534;-67
2023/12/03 04:11:51;;;;;;;;;;;;;;;5.35;83.98;100901.81;7312534;19;19934;-67
2023/12/03 04:14:18;;;;;;;;;;;;;;;5.38;83.96;100901.59;7311808;19;19922;-69
2023/12/03 04:16:45;;;;;;;;;;;;;;;5.42;84.94;100886.53;7297514;19;19922;-67
2023/12/03 04:19:12;;;;;;;;;;;;;;;5.42;84.24;100892.56;7318323;19;19975;-66
2023/12/03 04:21:39;;;;;;;;;;;;;;;5.48;84.52;100904.31;7317065;19;19990;-67
2023/12/03 04:24:06;;;;;;;;;;;;;;;5.51;84.22;100909.28;7321473;19;19926;-67
2023/12/03 04:26:33;;;;;;;;;;;;;;;5.53;83.59;100896.97;7315624;19;20015;-67
2023/12/03 04:29:05;;;;;;;;;;;;;;;5.57;83.35;100901.00;7311495;19;19919;-66
2023/12/03 04:31:33;;;;;;;;;;;;;;;5.56;83.11;100900.16;7324330;19;20217;-66
2023/12/03 04:33:59;;;;;;;;;;;;;;;5.58;82.41;100898.28;7326929;19;19914;-67
2023/12/03 04:36:27;;;;;;;;;;;;;;;5.62;82.76;100893.63;7316555;19;19939;-67
2023/12/03 04:39:01;;;;;;;;;;;;;;;5.69;82.63;100907.84;7307862;19;20357;-67
2023/12/03 04:41:35;;;;;;;;;;;;;;;5.72;82.53;100894.56;7316184;19;20628;-67
2023/12/03 04:44:02;;;;;;;;;;;;;;;5.72;82.42;100888.53;7316413;19;20022;-67
2023/12/03 04:46:29;;;;;;;;;;;;;;;5.79;82.48;100893.13;7324095;19;19922;-67
2023/12/03 04:48:59;;;;;;;;;;;;;;;5.80;82.85;100889.56;7330265;19;19937;-67
2023/12/03 04:51:26;;;;;;;;;;;;;;;5.84;83.36;100893.59;7321205;19;19915;-66
2023/12/03 04:53:53;;;;;;;;;;;;;;;5.87;83.43;100896.00;7321413;19;19951;-66
2023/12/03 04:56:20;;;;;;;;;;;;;;;5.89;83.81;100903.75;7318887;19;19933;-68
2023/12/03 04:58:46;;;;;;;;;;;;;;;5.88;84.00;100891.63;7315292;19;20771;-69
2023/12/03 05:01:13;;;;;;;;;;;;;;;5.89;83.88;100888.06;7313071;19;20023;-68
2023/12/03 05:03:44;;;;;;;;;;;;;;;5.94;84.49;100896.38;7313536;19;20462;-67
2023/12/03 05:06:12;;;;;;;;;;;;;;;5.91;85.03;100888.75;7320494;19;20297;-68
2023/12/03 05:08:39;;;;;;;;;;;;;;;5.90;85.66;100884.47;7318074;19;20261;-66
2023/12/03 05:11:06;;;;;;;;;;;;;;;5.91;85.85;100876.53;7320108;19;19918;-67
2023/12/03 05:13:33;;;;;;;;;;;;;;;5.91;86.47;100868.72;7318811;19;20710;-68
2023/12/03 05:16:00;;;;;;;;;;;;;;;5.87;86.45;100863.84;7322243;19;20374;-67
2023/12/03 05:18:27;;;;;;;;;;;;;;;5.85;86.81;100858.72;7319073;19;20255;-67
2023/12/03 05:20:54;;;;;;;;;;;;;;;5.87;87.43;100853.41;7315774;19;19950;-67
2023/12/03 05:23:24;;;;;;;;;;;;;;;5.86;87.88;100846.50;7305562;19;20368;-68
2023/12/03 05:25:52;;;;;;;;;;;;;;;5.84;88.68;100844.00;7324724;19;20039;-66
2023/12/03 05:28:19;;;;;;;;;;;;;;;5.83;89.23;100839.75;7320215;19;20166;-68
2023/12/03 05:30:46;;;;;;;;;;;;;;;5.91;90.16;100844.38;7321980;19;19949;-68
2023/12/03 05:33:13;;;;;;;;;;;;;;;5.88;90.47;100837.63;7319307;19;20475;-67
2023/12/03 05:35:40;;;;;;;;;;;;;;;5.90;90.71;100840.94;7316296;19;19919;-67
2023/12/03 05:38:07;;;;;;;;;;;;;;;5.89;91.41;100841.06;7321626;19;20268;-67
2023/12/03 05:40:34;;;;;;;;;;;;;;;5.92;92.04;100835.59;7314060;19;19923;-67
2023/12/03 05:43:01;;;;;;;;;;;;;;;5.86;92.93;100831.66;7331595;19;19930;-67
2023/12/03 05:45:28;;;;;;;;;;;;;;;5.89;93.87;100835.84;7333411;19;20436;-67
2023/12/03 05:47:55;;;;;;;;;;;;;;;5.91;94.49;100824.31;7319729;19;19923;-67
2023/12/03 05:50:22;;;;;;;;;;;;;;;5.91;94.62;100820.88;7309210;19;22155;-66
2023/12/03 05:52:49;;;;;;;;;;;;;;;5.92;95.35;100818.16;7314072;19;19946;-67
2023/12/03 05:55:16;;;;;;;;;;;;;;;5.94;95.98;100818.03;7304077;19;20681;-67
2023/12/03 05:57:43;;;;;;;;;;;;;;;5.93;96.34;100808.53;7317072;19;21183;-67
2023/12/03 06:00:10;;;;;;;;;;;;;;;5.93;96.96;100811.16;7314753;19;19921;-67
2023/12/03 06:02:37;;;;;;;;;;;;;;;5.92;97.29;100805.09;7317204;19;19918;-66
2023/12/03 06:05:04;;;;;;;;;;;;;;;5.87;97.73;100802.03;7331524;19;19925;-68
2023/12/03 06:07:31;;;;;;;;;;;;;;;5.91;98.43;100807.81;7318785;19;19919;-66
2023/12/03 06:09:58;;;;;;;;;;;;;;;5.92;99.04;100807.72;7320819;19;20226;-67
2023/12/03 06:12:25;;;;;;;;;;;;;;;5.91;99.21;100806.03;7318675;19;19915;-68
2023/12/03 06:14:52;;;;;;;;;;;;;;;5.92;99.79;100799.03;7316908;19;20596;-66
2023/12/03 06:17:19;;;;;;;;;;;;;;;5.92;99.82;100797.28;7318994;19;20448;-66
2023/12/03 06:19:46;;;;;;;;;;;;;;;5.92;100.00;100799.88;7316534;19;19936;-68
2023/12/03 06:22:13;;;;;;;;;;;;;;;5.95;100.00;100801.41;7309330;19;20326;-70
2023/12/03 06:24:40;;;;;;;;;;;;;;;5.94;100.00;100797.94;7325973;19;19930;-66
2023/12/03 06:27:06;;;;;;;;;;;;;;;5.98;100.00;100793.34;7317675;19;19915;-68
2023/12/03 06:29:33;;;;;;;;;;;;;;;5.96;100.00;100792.63;7318132;19;20239;-67
2023/12/03 06:32:00;;;;;;;;;;;;;;;6.00;100.00;100801.84;7326368;19;20464;-66
2023/12/03 06:34:27;;;;;;;;;;;;;;;6.03;100.00;100795.56;7329010;19;19930;-67
2023/12/03 06:36:54;;;;;;;;;;;;;;;6.05;100.00;100789.25;7322928;19;19982;-67
2023/12/03 06:39:21;;;;;;;;;;;;;;;6.07;100.00;100791.75;7321850;19;20375;-65
2023/12/03 06:41:47;;;;;;;;;;;;;;;6.04;100.00;100781.56;7312392;19;20579;-66
2023/12/03 06:44:14;;;;;;;;;;;;;;;6.06;100.00;100769.19;7316296;19;19918;-67
2023/12/03 06:46:52;;;;;;;;;;;;;;;6.09;100.00;100774.19;7313649;19;20251;-68
2023/12/03 06:49:19;;;;;;;;;;;;;;;6.07;100.00;100766.47;7299969;19;20275;-67
2023/12/03 06:51:46;;;;;;;;;;;;;;;6.07;100.00;100766.47;7325651;19;20453;-67
2023/12/03 06:54:13;;;;;;;;;;;;;;;6.09;100.00;100763.75;7305838;19;19925;-66
2023/12/03 06:56:39;;;;;;;;;;;;;;;6.08;100.00;100754.25;7326425;19;19927;-68
2023/12/03 06:59:06;;;;;;;;;;;;;;;6.10;100.00;100755.75;7329444;19;19966;-67
2023/12/03 07:01:33;;;;;;;;;;;;;;;6.14;100.00;100757.19;7328846;19;19935;-67
2023/12/03 07:04:03;;;;;;;;;;;;;;;6.13;100.00;100752.91;7309871;19;19915;-68
2023/12/03 07:06:30;;;;;;;;;;;;;;;6.18;100.00;100752.53;7313047;19;20675;-67
2023/12/03 07:08:58;;;;;;;;;;;;;;;6.18;100.00;100758.59;7313897;19;19925;-66
2023/12/03 07:11:44;;;;;;;;;;;;;;;6.18;100.00;100753.38;7308681;19;19930;-67
2023/12/03 07:14:14;;;;;;;;;;;;;;;6.22;100.00;100746.09;7293023;19;20256;-68
2023/12/03 07:16:41;;;;;;;;;;;;;;;6.22;100.00;100739.09;7302231;19;20520;-68
2023/12/03 07:19:08;;;;;;;;;;;;;;;6.24;100.00;100738.97;7322997;19;20352;-66
2023/12/03 07:21:35;;;;;;;;;;;;;;;6.26;100.00;100740.47;7317718;19;19986;-66
2023/12/03 07:24:02;;;;;;;;;;;;;;;6.32;100.00;100736.53;7307550;19;19942;-68
2023/12/03 07:26:29;;;;;;;;;;;;;;;6.34;100.00;100737.25;7312402;19;19974;-69
2023/12/03 07:28:56;;;;;;;;;;;;;;;6.37;100.00;100739.59;7324433;19;20267;-66
2023/12/03 07:31:24;;;;;;;;;;;;;;;6.40;100.00;100734.09;7306134;19;19923;-67
2023/12/03 07:33:51;;;;;;;;;;;;;;;6.42;100.00;100743.47;7304106;19;19921;-66
2023/12/03 07:36:18;;;;;;;;;;;;;;;6.47;100.00;100730.03;7304512;19;19921;-68
2023/12/03 07:38:44;;;;;;;;;;;;;;;6.51;100.00;100730.59;7318242;19;19926;-66
2023/12/03 07:41:11;;;;;;;;;;;;;;;6.51;100.00;100747.09;7308934;19;19938;-66
2023/12/03 07:43:38;;;;;;;;;;;;;;;6.49;100.00;100746.41;7316175;19;20373;-67
2023/12/03 07:46:05;;;;;;;;;;;;;;;6.48;100.00;100736.91;7311795;19;19925;-68
2023/12/03 07:48:33;;;;;;;;;;;;;;;6.54;100.00;100736.41;7310270;19;20797;-66
2023/12/03 07:51:00;;;;;;;;;;;;;;;6.57;100.00;100738.75;7311427;19;19929;-68
2023/12/03 07:53:27;;;;;;;;;;;;;;;6.62;100.00;100730.50;7308367;19;19941;-66
2023/12/03 07:55:54;;;;;;;;;;;;;;;6.63;100.00;100727.78;7311069;19;19910;-67
2023/12/03 07:58:20;;;;;;;;;;;;;;;6.66;100.00;100734.53;7291781;19;21068;-67
2023/12/03 08:00:47;;;;;;;;;;;;;;;6.68;100.00;100743.06;7315702;19;19915;-67
2023/12/03 08:03:14;;;;;;;;;;;;;;;6.74;100.00;100732.09;7319554;19;19918;-67
2023/12/03 08:05:41;;;;;;;;;;;;;;;6.75;100.00;100736.38;7301637;19;19915;-66
2023/12/03 08:08:08;;;;;;;;;;;;;;;6.77;100.00;100739.66;7315156;19;21051;-70
2023/12/03 08:10:35;;;;;;;;;;;;;;;6.76;100.00;100732.78;7318648;19;19958;-67
2023/12/03 08:13:02;;;;;;;;;;;;;;;6.77;100.00;100732.66;7319384;19;20399;-69
2023/12/03 08:15:29;;;;;;;;;;;;;;;6.80;100.00;100732.41;7321840;19;22209;-67
2023/12/03 08:17:55;;;;;;;;;;;;;;;6.82;100.00;100733.09;7308077;19;19915;-67
2023/12/03 08:20:22;;;;;;;;;;;;;;;6.85;100.00;100729.41;7315900;19;20289;-67
2023/12/03 08:22:49;;;;;;;;;;;;;;;6.88;100.00;100729.97;7306801;19;20513;-67
2023/12/03 08:25:16;;;;;;;;;;;;;;;6.85;100.00;100734.63;7323276;19;19922;-66
2023/12/03 08:27:43;;;;;;;;;;;;;;;6.88;100.00;100729.13;7303675;19;19941;-65
2023/12/03 08:30:10;;;;;;;;;;;;;;;6.88;100.00;100721.28;7310656;19;19927;-68
2023/12/03 08:32:37;;;;;;;;;;;;;;;6.92;100.00;100722.66;7309389;19;19922;-70
2023/12/03 08:35:04;;;;;;;;;;;;;;;6.94;100.00;100723.38;7300493;19;19922;-66
2023/12/03 08:37:31;;;;;;;;;;;;;;;6.93;100.00;100723.50;7319148;19;19930;-66
2023/12/03 08:39:59;;;;;;;;;;;;;;;6.95;100.00;100719.81;7322820;19;19994;-67
2023/12/03 08:42:26;;;;;;;;;;;;;;;6.97;100.00;100712.63;7323517;19;19929;-68
2023/12/03 08:44:53;;;;;;;;;;;;;;;7.01;100.00;100721.88;7329143;19;20490;-67
2023/12/03 08:47:25;;;;;;;;;;;;;;;7.00;100.00;100720.25;7321058;19;19911;-68
2023/12/03 08:49:59;;;;;;;;;;;;;;;7.05;100.00;100720.66;7316644;19;20605;-67
2023/12/03 08:52:32;;;;;;;;;;;;;;;7.07;100.00;100720.50;7316631;19;19927;-67
2023/12/03 08:55:02;;;;;;;;;;;;;;;7.07;100.00;100717.91;7321990;19;19923;-66
2023/12/03 08:57:29;;;;;;;;;;;;;;;7.11;100.00;100714.09;7330392;19;20307;-67
2023/12/03 08:59:57;;;;;;;;;;;;;;;7.15;100.00;100708.44;7328418;19;19968;-67
2023/12/03 09:02:24;;;;;;;;;;;;;;;7.16;100.00;100706.66;7324842;19;19918;-67
2023/12/03 09:04:51;;;;;;;;;;;;;;;7.20;100.00;100714.09;7325209;19;19918;-67
2023/12/03 09:07:18;;;;;;;;;;;;;;;7.24;100.00;100712.88;7320822;19;20323;-68
2023/12/03 09:09:45;;;;;;;;;;;;;;;7.28;100.00;100710.81;7308748;19;19943;-66
2023/12/03 09:12:13;;;;;;;;;;;;;;;7.32;100.00;100709.56;7325110;19;19937;-67
2023/12/03 09:14:40;;;;;;;;;;;;;;;7.35;100.00;100704.06;7316267;19;19952;-66
2023/12/03 09:17:07;;;;;;;;;;;;;;;7.38;100.00;100703.78;7313830;19;19937;-68
2023/12/03 09:19:34;;;;;;;;;;;;;;;7.41;100.00;100698.31;7332074;19;20008;-67
2023/12/03 09:22:01;;;;;;;;;;;;;;;7.45;100.00;100697.06;7323301;19;19914;-67
2023/12/03 09:24:28;;;;;;;;;;;;;;;7.48;100.00;100699.41;7324809;19;20058;-67
2023/12/03 09:26:55;;;;;;;;;;;;;;;7.56;100.00;100699.56;7308496;19;19946;-67
2023/12/03 09:29:22;;;;;;;;;;;;;;;7.57;100.00;100701.19;7323535;19;20230;-67
2023/12/03 09:31:49;;;;;;;;;;;;;;;7.60;100.00;100702.72;7333989;19;21062;-67
2023/12/03 09:34:18;;;;;;;;;;;;;;;7.66;100.00;100702.19;7334066;19;19910;-67
2023/12/03 09:36:45;;;;;;;;;;;;;;;7.73;100.00;100705.88;7320648;19;20477;-67
2023/12/03 09:39:12;;;;;;;;;;;;;;;7.78;100.00;100708.09;7322007;19;19919;-67
2023/12/03 09:41:47;;;;;;;;;;;;;;;7.82;100.00;100707.72;7324200;19;19983;-67
2023/12/03 09:44:21;;;;;;;;;;;;;;;7.84;100.00;100699.69;7316610;19;20585;-67
2023/12/03 09:46:49;;;;;;;;;;;;;;;7.88;100.00;100703.69;7308907;19;21010;-66
2023/12/03 09:49:18;;;;;;;;;;;;;;;7.91;100.00;100700.81;7312528;19;19926;-66
2023/12/03 09:51:49;;;;;;;;;;;;;;;8.05;100.00;100698.59;7309523;19;19914;-66
2023/12/03 09:54:16;;;;;;;;;;;;;;;8.45;100.00;100701.00;7322903;19;20581;-66
2023/12/03 09:56:43;;;;;;;;;;;;;;;8.61;100.00;100708.28;7313196;19;20451;-65
2023/12/03 09:59:11;;;;;;;;;;;;;;;8.57;100.00;100707.75;7308568;19;19942;-67
2023/12/03 10:01:38;;;;;;;;;;;;;;;8.53;100.00;100705.56;7325723;19;19926;-67
2023/12/03 10:04:05;;;;;;;;;;;;;;;8.50;100.00;100705.81;7327108;19;19911;-67
2023/12/03 10:06:33;;;;;;;;;;;;;;;8.46;100.00;100693.97;7316371;19;19918;-66
2023/12/03 10:09:08;;;;;;;;;;;;;;;8.44;100.00;100696.72;7322365;19;19934;-65
2023/12/03 10:11:39;;;;;;;;;;;;;;;8.40;100.00;100702.41;7334805;19;19954;-65
2023/12/03 10:14:12;;;;;;;;;;;;;;;8.41;100.00;100702.28;7335564;19;20358;-67
2023/12/03 10:16:40;;;;;;;;;;;;;;;8.41;100.00;100698.81;7317252;19;19930;-67
2023/12/03 10:19:06;;;;;;;;;;;;;;;8.40;100.00;100698.00;7303643;19;19915;-68
2023/12/03 10:21:33;;;;;;;;;;;;;;;8.44;100.00;100701.97;7324006;19;20370;-67
2023/12/03 10:24:03;;;;;;;;;;;;;;;8.47;100.00;100700.88;7320449;19;19910;-67
2023/12/03 10:26:30;;;;;;;;;;;;;;;8.49;100.00;100705.00;7315243;19;20291;-66
2023/12/03 10:28:58;;;;;;;;;;;;;;;8.52;100.00;100702.09;7336090;19;19923;-66
2023/12/03 10:31:32;;;;;;;;;;;;;;;8.53;100.00;100692.44;7327628;19;19914;-66
2023/12/03 10:33:59;;;;;;;;;;;;;;;8.56;100.00;100690.34;7324541;19;19935;-67
2023/12/03 10:36:28;;;;;;;;;;;;;;;8.59;100.00;100686.59;7322577;19;19922;-67
2023/12/03 10:38:55;;;;;;;;;;;;;;;8.62;100.00;100694.22;7322814;19;19948;-66
2023/12/03 10:41:23;;;;;;;;;;;;;;;8.64;100.00;100684.38;7302804;19;19957;-68
2023/12/03 10:43:50;;;;;;;;;;;;;;;8.68;100.00;100691.00;7315455;19;19921;-66
2023/12/03 10:46:17;;;;;;;;;;;;;;;8.70;100.00;100683.81;7301451;19;19941;-67
2023/12/03 10:48:46;;;;;;;;;;;;;;;8.72;100.00;100681.88;7311401;19;19923;-66
2023/12/03 10:51:13;;;;;;;;;;;;;;;8.77;100.00;100682.28;7323621;19;20292;-67
2023/12/03 10:53:40;;;;;;;;;;;;;;;8.78;100.00;100680.47;7312095;19;19914;-66
2023/12/03 10:56:07;;;;;;;;;;;;;;;8.81;100.00;100678.38;7311724;19;19925;-65
2023/12/03 10:58:37;;;;;;;;;;;;;;;8.83;100.00;100673.84;7316599;19;19922;-66
2023/12/03 11:01:17;;;;;;;;;;;;;;;8.85;100.00;100666.63;7317434;19;19931;-66
2023/12/03 11:03:53;;;;;;;;;;;;;;;8.89;100.00;100670.59;7320096;19;19918;-66
2023/12/03 11:06:22;;;;;;;;;;;;;;;8.93;100.00;100663.28;7313985;19;19918;-66
2023/12/03 11:08:53;;;;;;;;;;;;;;;8.97;100.00;100660.22;7321183;19;20522;-67
2023/12/03 11:11:22;;;;;;;;;;;;;;;9.01;100.00;100661.56;7310024;19;19919;-67
2023/12/03 11:13:53;;;;;;;;;;;;;;;9.02;100.00;100657.97;7306260;19;19926;-67
2023/12/03 11:16:21;;;;;;;;;;;;;;;9.06;100.00;100652.44;7314179;19;19930;-67
2023/12/03 11:18:52;;;;;;;;;;;;;;;9.11;100.00;100648.38;7313040;19;19919;-65
2023/12/03 11:21:38;;;;;;;;;;;;;;;9.15;100.00;100649.75;7305358;19;20384;-65
2023/12/03 11:24:23;;;;;;;;;;;;;;;9.11;100.00;100648.38;7320688;19;21249;-67
2023/12/03 11:26:51;;;;;;;;;;;;;;;9.09;100.00;100646.91;7312573;19;19919;-66
2023/12/03 11:29:18;;;;;;;;;;;;;;;9.08;100.00;100643.44;7321013;19;20705;-66
2023/12/03 11:31:45;;;;;;;;;;;;;;;9.05;100.00;100629.78;7321063;19;19941;-68
2023/12/03 11:34:12;;;;;;;;;;;;;;;9.05;100.00;100625.34;7312762;19;19926;-66
2023/12/03 11:36:43;;;;;;;;;;;;;;;9.05;100.00;100621.91;7321385;19;20796;-69
2023/12/03 11:39:10;;;;;;;;;;;;;;;9.07;100.00;100626.03;7309832;19;20137;-67
2023/12/03 11:41:38;;;;;;;;;;;;;;;9.06;100.00;100619.13;7318506;19;19968;-66
2023/12/03 11:44:21;;;;;;;;;;;;;;;9.05;100.00;100620.09;7322076;19;20439;-67
2023/12/03 11:47:08;;;;;;;;;;;;;;;9.04;100.00;100612.41;7317676;19;19914;-68
2023/12/03 11:49:39;;;;;;;;;;;;;;;9.04;100.00;100620.28;7318865;19;19922;-65
2023/12/03 11:52:06;;;;;;;;;;;;;;;9.01;100.00;100611.72;7321059;19;20171;-67
2023/12/03 11:54:35;;;;;;;;;;;;;;;9.06;100.00;100605.19;7299950;19;19984;-68
2023/12/03 11:57:02;;;;;;;;;;;;;;;9.08;100.00;100605.88;7322216;19;20723;-67
2023/12/03 11:59:29;;;;;;;;;;;;;;;9.10;100.00;100602.13;7313751;19;20015;-67
2023/12/03 12:01:56;;;;;;;;;;;;;;;9.10;100.00;100594.25;7300343;19;20562;-68
2023/12/03 12:04:23;;;;;;;;;;;;;;;9.12;100.00;100600.19;7306081;19;19925;-67
2023/12/03 12:06:50;;;;;;;;;;;;;;;9.13;100.00;100606.25;7308805;19;20299;-67
2023/12/03 12:09:24;;;;;;;;;;;;;;;9.13;100.00;100593.97;7305155;19;19923;-68
2023/12/03 12:11:55;;;;;;;;;;;;;;;9.14;100.00;100597.41;7312400;19;19974;-66
2023/12/03 12:14:21;;;;;;;;;;;;;;;9.15;100.00;100594.63;7312977;19;20003;-68
2023/12/03 12:16:48;;;;;;;;;;;;;;;9.17;100.00;100592.69;7313822;19;19958;-66
2023/12/03 12:19:15;;;;;;;;;;;;;;;9.17;100.00;100594.47;7306241;19;20229;-68
2023/12/03 12:21:51;;;;;;;;;;;;;;;9.18;100.00;100581.22;7316331;19;19915;-67
2023/12/03 12:24:18;;;;;;;;;;;;;;;9.24;100.00;100587.66;7308796;19;19911;-65
2023/12/03 12:26:46;;;;;;;;;;;;;;;9.26;100.00;100577.81;7306223;19;19911;-66
2023/12/03 12:29:13;;;;;;;;;;;;;;;9.29;100.00;100583.63;7306619;19;19918;-66
2023/12/03 12:31:41;;;;;;;;;;;;;;;9.30;100.00;100576.53;7309747;19;20219;-67
2023/12/03 12:34:09;;;;;;;;;;;;;;;9.28;100.00;100576.72;7318108;19;19923;-66
2023/12/03 12:36:36;;;;;;;;;;;;;;;9.34;100.00;100585.78;7310199;19;20364;-67
2023/12/03 12:39:03;;;;;;;;;;;;;;;9.32;100.00;100575.44;7321106;19;20336;-69
2023/12/03 12:41:37;;;;;;;;;;;;;;;9.33;100.00;100579.72;7316787;19;19941;-67
2023/12/03 12:44:04;;;;;;;;;;;;;;;9.35;100.00;100580.38;7315253;19;19923;-68